< Typhoon 198221 1982 Season Typhoon 198223 >
Typhoon 198222 (NANCY)
General InformationTrack Information on Google MapsDetailed Wind InformationList of All Images || Disaster Info.ResourceGoogle EarthGE AnimationAtom FeedGeoJSON
Detalied Best Track (Time Zone = UTC)
Year Month Day Hour Lat. Long. Pressure (hPa) Wind (kt) Class Image Chart
1982 10 10 00 17.0 147.5 1006 0 2 Image Chart
1982 10 10 06 16.0 146.0 1006 0 2 Image Chart
1982 10 10 12 16.0 144.5 1006 0 2 Image Chart
1982 10 10 18 16.0 143.0 1004 0 2 Image Chart
1982 10 11 00 16.0 141.5 1002 0 2 Image Chart
1982 10 11 06 16.2 139.9 998 35 3 Image Chart
1982 10 11 12 16.2 138.5 996 40 3 Image Chart
1982 10 11 18 16.0 137.1 992 45 3 Image Chart
1982 10 12 00 15.9 135.6 990 45 3 Image Chart
1982 10 12 06 15.9 134.4 990 45 3 Image Chart
1982 10 12 12 16.0 133.0 985 55 4 Image Chart
1982 10 12 18 16.1 131.6 980 60 4 Image Chart
1982 10 13 00 16.3 130.6 975 65 5 Image Chart
1982 10 13 06 16.6 129.5 970 70 5 Image Chart
1982 10 13 12 16.9 128.1 970 70 5 Image Chart
1982 10 13 18 17.3 126.6 955 75 5 Image Chart
1982 10 14 00 17.8 125.0 945 90 5 Image Chart
1982 10 14 06 17.6 123.6 935 100 5 Image Chart
1982 10 14 12 17.5 122.3 935 100 5 Image Chart
1982 10 14 18 17.4 120.8 950 80 5 Image Chart
1982 10 15 00 17.4 119.5 970 65 5 Image Chart
1982 10 15 06 17.3 118.5 980 65 5 Image Chart
1982 10 15 12 17.0 117.3 985 65 5 Image Chart
1982 10 15 18 17.0 116.1 975 70 5 Image Chart
1982 10 16 00 16.9 114.7 970 65 5 Image Chart
1982 10 16 06 16.9 113.5 970 70 5 Image Chart
1982 10 16 12 17.1 112.4 970 70 5 Image Chart
1982 10 16 18 17.3 111.3 975 70 5 Image Chart
1982 10 17 00 17.5 110.0 975 70 5 Image Chart
1982 10 17 06 17.7 108.9 975 75 5 Image Chart
1982 10 17 12 18.2 107.7 975 70 5 Image Chart
1982 10 17 18 18.9 107.0 980 70 5 Image Chart
1982 10 18 00 18.8 106.2 980 70 5 Image Chart
1982 10 18 06 19.0 106.0 985 65 5 Image Chart
1982 10 18 12 19.0 105.5 985 50 4 Image Chart
1982 10 18 18 19.0 105.0 990 35 3 Image Chart
1982 10 19 00 19.0 104.5 992 35 3 Image Chart
1982 10 19 06 19.0 104.0 1000 0 2 Image Chart
1982 10 19 12 19.0 103.0 1000 0 2 Image Chart
1982 10 19 18 19.0 103.0 1004 0 2 Image Chart
1982 10 20 00 19.0 103.0 1008 0 2 Image Chart
Japan Meteorological Agency Best Track Data | Correction Date : 1992-10-21
< Typhoon 198221 1982 Season Typhoon 198223 >

Help